Time;durP1;ratioP1;P1;durP2;ratioP2;P2;SDS_P1;SDS_P2;PMS_P1;PMS_P2;Temp;Humidity;BMP_temperature;BMP_pressure;BME280_temperature;BME280_humidity;BME280_pressure;Samples;Min_cycle;Max_cycle;Signal;HPM_P1;HPM_P2
2022/08/12 00:45:03;;;;;;;222.70;24.07;;;;;;;17.43;69.89;99453.97;2212106;81;21052;-80
2022/08/12 00:48:03;;;;;;;25.97;8.23;;;;;;;17.53;69.36;99454.78;2213003;81;20948;-83
2022/08/12 00:51:04;;;;;;;21.50;7.92;;;;;;;17.50;69.96;99457.44;2212874;81;20909;-84
2022/08/12 00:54:04;;;;;;;23.42;7.60;;;;;;;17.66;69.12;99455.16;2213470;81;20897;-84
2022/08/12 00:57:04;;;;;;;9.20;7.20;;;;;;;17.44;68.64;99454.84;2213080;81;20979;-84
2022/08/12 01:00:10;;;;;;;10.35;7.05;;;;;;;17.62;68.84;99450.76;2191654;81;21379;-84
2022/08/12 01:03:10;;;;;;;11.38;7.10;;;;;;;17.93;67.94;99450.12;2213523;81;20971;-81
2022/08/12 01:12:50;;;;;;;9.35;6.40;;;;;;;18.21;66.17;99448.14;2190111;81;21055;-84
2022/08/12 01:15:51;;;;;;;8.08;6.20;;;;;;;18.21;65.57;99453.88;2212476;81;21343;-84
2022/08/12 01:18:51;;;;;;;11.20;6.97;;;;;;;18.21;65.14;99452.11;2212275;81;20941;-85
2022/08/12 01:21:54;;;;;;;8.03;5.92;;;;;;;18.24;64.88;99447.23;2212080;81;20913;-84
2022/08/12 01:24:53;;;;;;;7.42;6.15;;;;;;;18.28;64.46;99452.48;2211629;81;20925;-84
2022/08/12 01:27:52;;;;;;;8.93;6.25;;;;;;;18.26;63.99;99447.66;2211823;81;20929;-82
2022/08/12 01:30:53;;;;;;;8.63;5.87;;;;;;;18.20;63.91;99444.16;2211796;81;21266;-85
2022/08/12 01:33:54;;;;;;;6.60;5.42;;;;;;;18.17;63.87;99440.23;2211729;81;20917;-84
2022/08/12 01:36:54;;;;;;;11.80;5.58;;;;;;;18.15;63.77;99438.92;2211875;81;20968;-84
2022/08/12 01:39:55;;;;;;;8.50;5.50;;;;;;;18.08;63.63;99436.78;2211630;81;20983;-84
2022/08/12 01:42:54;;;;;;;9.25;5.58;;;;;;;18.07;63.30;99434.15;2211302;81;21058;-84
2022/08/12 01:45:58;;;;;;;5.62;5.10;;;;;;;18.02;63.28;99431.99;2211459;81;20921;-83
2022/08/12 01:48:55;;;;;;;13.20;5.58;;;;;;;17.84;63.30;99440.95;2212392;81;20932;-83
2022/08/12 01:51:56;;;;;;;7.37;5.12;;;;;;;17.85;63.52;99432.58;2212423;81;21335;-84
2022/08/12 01:54:57;;;;;;;8.35;5.83;;;;;;;17.93;63.22;99434.72;2211979;81;20965;-84
2022/08/12 01:57:56;;;;;;;8.93;5.83;;;;;;;17.95;62.99;99435.58;2212044;81;20957;-84
2022/08/12 02:00:57;;;;;;;10.20;5.90;;;;;;;17.88;62.92;99425.95;2211912;81;20965;-83
2022/08/12 02:13:54;;;;;;;20.88;6.25;;;;;;;18.02;62.46;99414.37;2224024;80;20968;-85
2022/08/12 02:16:55;;;;;;;11.95;6.47;;;;;;;18.01;62.31;99415.71;2223915;80;21018;-85
2022/08/12 02:20:01;;;;;;;9.70;6.58;;;;;;;17.96;62.13;99417.08;2224072;80;21414;-85
2022/08/12 02:23:02;;;;;;;12.37;6.45;;;;;;;17.95;62.14;99419.28;2223083;80;21019;-85
2022/08/12 02:26:01;;;;;;;15.10;6.30;;;;;;;17.93;61.85;99410.95;2223384;80;20940;-85
2022/08/12 02:29:06;;;;;;;11.43;6.78;;;;;;;17.67;61.85;99417.31;2195409;80;21011;-85
2022/08/12 02:32:05;;;;;;;9.00;6.40;;;;;;;17.64;62.27;99415.98;2223133;80;20967;-85
2022/08/12 02:35:10;;;;;;;11.28;6.30;;;;;;;17.65;62.12;99419.50;2223951;80;20975;-84
2022/08/12 02:38:10;;;;;;;9.73;6.03;;;;;;;17.50;62.16;99414.77;2199323;80;20968;-84
2022/08/12 02:41:10;;;;;;;51.00;9.65;;;;;;;17.45;62.27;99415.69;2223088;80;21019;-79
2022/08/12 02:44:11;;;;;;;16.05;6.70;;;;;;;17.48;62.73;99415.66;2224033;80;20975;-84
2022/08/12 02:47:11;;;;;;;10.80;6.62;;;;;;;17.43;62.44;99420.97;2223586;80;20979;-84
2022/08/12 02:50:11;;;;;;;11.30;6.35;;;;;;;16.76;60.66;99424.38;2223140;80;21307;-83
2022/08/12 02:53:12;;;;;;;42.43;9.68;;;;;;;15.70;61.45;99427.56;2223017;80;20896;-84
2022/08/12 02:56:12;;;;;;;7.83;6.12;;;;;;;14.87;63.25;99422.51;2223318;80;20928;-83
2022/08/12 02:59:15;;;;;;;12.37;6.58;;;;;;;14.28;64.67;99426.97;2223029;80;20983;-83
2022/08/12 03:02:15;;;;;;;22.17;8.18;;;;;;;13.80;65.87;99420.02;2218021;80;21326;-84
2022/08/12 03:05:17;;;;;;;17.25;7.67;;;;;;;13.41;67.28;99419.24;2197243;80;20905;-81
2022/08/12 03:08:24;;;;;;;26.82;7.87;;;;;;;13.14;68.56;99415.88;2222803;80;20952;-82
2022/08/12 03:11:30;;;;;;;9.30;6.40;;;;;;;12.91;69.67;99411.66;2175424;82;21027;-82
2022/08/12 03:14:39;;;;;;;10.82;6.15;;;;;;;12.68;70.58;99408.34;2137008;83;21036;-82
2022/08/12 03:17:59;;;;;;;20.82;7.80;;;;;;;12.49;71.36;99403.73;2106072;85;21006;-83
2022/08/12 03:21:01;;;;;;;15.50;7.20;;;;;;;12.37;72.52;99406.19;2070651;86;21040;-83
2022/08/12 03:24:01;;;;;;;13.88;7.40;;;;;;;12.33;73.22;99412.23;2099404;85;20946;-84
2022/08/12 03:27:02;;;;;;;19.12;7.30;;;;;;;12.30;73.46;99413.08;2106164;85;20969;-83
2022/08/12 03:30:02;;;;;;;11.33;7.03;;;;;;;12.15;73.55;99420.70;2105575;85;20961;-81
2022/08/12 03:33:03;;;;;;;13.53;6.87;;;;;;;12.07;74.22;99434.95;2105251;85;20997;-82
2022/08/12 03:36:03;;;;;;;16.87;6.70;;;;;;;12.04;74.97;99426.18;2105419;85;21076;-82
2022/08/12 03:42:16;;;;;;;17.15;7.60;;;;;;;11.90;75.92;99430.32;2105105;85;21416;-83
2022/08/12 04:01:56;;;;;;;57.80;9.23;;;;;;;11.85;78.05;99432.86;2140356;83;21015;-83
2022/08/12 04:04:54;;;;;;;6.87;5.87;;;;;;;11.86;78.01;99433.74;2192259;80;21485;-83
2022/08/12 04:07:55;;;;;;;9.60;6.42;;;;;;;11.89;78.24;99437.72;2224736;80;20932;-85
2022/08/12 04:14:21;;;;;;;88.67;11.45;;;;;;;11.98;78.59;99445.28;2211140;81;21022;-83
2022/08/12 04:17:21;;;;;;;64.30;9.58;;;;;;;12.02;78.82;99444.90;2209334;81;20995;-85
2022/08/12 04:20:26;;;;;;;38.98;7.92;;;;;;;13.10;85.08;99446.42;2209599;81;20960;-85
2022/08/12 04:23:24;;;;;;;10.82;6.37;;;;;;;15.12;80.30;99432.66;2201541;81;21027;-84
2022/08/12 04:26:24;;;;;;;10.05;6.05;;;;;;;16.22;75.34;99427.09;2210064;81;21039;-84
2022/08/12 04:29:25;;;;;;;30.05;6.80;;;;;;;16.78;72.72;99423.48;2210197;81;21351;-83
2022/08/12 04:32:25;;;;;;;12.95;5.92;;;;;;;17.16;71.20;99423.75;2208893;81;21039;-83
2022/08/12 04:35:26;;;;;;;14.85;5.30;;;;;;;17.38;69.49;99421.89;2209682;81;20945;-81
2022/08/12 04:38:27;;;;;;;8.63;5.72;;;;;;;17.48;68.74;99422.27;2209390;81;21062;-82
2022/08/12 04:41:26;;;;;;;17.23;8.00;;;;;;;17.51;68.32;99423.56;2208941;81;21062;-82
2022/08/12 04:44:27;;;;;;;71.62;9.08;;;;;;;17.59;67.90;99429.66;2207957;81;20963;-82
2022/08/12 04:47:27;;;;;;;15.08;6.47;;;;;;;17.72;67.84;99435.32;2207988;81;21026;-83
2022/08/12 04:50:27;;;;;;;10.15;6.90;;;;;;;18.17;67.35;99442.42;2208175;81;20967;-84
2022/08/12 04:53:28;;;;;;;17.65;7.65;;;;;;;18.55;66.58;99434.14;2208159;81;21361;-84
2022/08/12 04:56:28;;;;;;;21.85;7.08;;;;;;;18.44;65.56;99434.70;2207916;81;21022;-85
2022/08/12 04:59:29;;;;;;;51.30;7.97;;;;;;;18.05;66.38;99438.13;2208537;81;20964;-79
2022/08/12 05:02:29;;;;;;;74.05;10.13;;;;;;;18.05;66.75;99437.25;2208503;81;21031;-82
2022/08/12 05:05:30;;;;;;;25.60;7.47;;;;;;;17.82;66.69;99443.60;2208310;81;21410;-83
2022/08/12 05:08:30;;;;;;;70.17;9.45;;;;;;;17.92;67.99;99437.80;2208260;81;20972;-83
2022/08/12 05:11:30;;;;;;;25.23;7.03;;;;;;;18.52;67.45;99441.23;2207923;81;21020;-83
2022/08/12 05:14:31;;;;;;;34.48;8.15;;;;;;;18.92;66.44;99438.58;2208235;81;20975;-82
2022/08/12 05:17:31;;;;;;;62.88;8.33;;;;;;;19.27;66.19;99434.63;2209123;81;21091;-83
2022/08/12 05:20:33;;;;;;;33.85;7.53;;;;;;;19.35;65.16;99438.05;2209747;81;21031;-83
2022/08/12 05:23:32;;;;;;;20.90;6.28;;;;;;;19.61;65.12;99435.92;2209729;81;20998;-82
2022/08/12 05:26:32;;;;;;;77.22;9.88;;;;;;;19.88;64.83;99435.05;2208982;81;20991;-82
2022/08/12 05:29:33;;;;;;;16.32;6.33;;;;;;;20.12;64.73;99432.02;2208831;81;20987;-82
2022/08/12 05:32:33;;;;;;;98.58;10.78;;;;;;;20.38;64.25;99438.19;2209284;81;20976;-81
2022/08/12 05:35:40;;;;;;;37.95;6.62;;;;;;;20.65;63.47;99436.82;2208692;81;21039;-79
2022/08/12 05:38:55;;;;;;;46.63;7.87;;;;;;;20.65;63.14;99441.67;2208060;81;20972;-82
2022/08/12 05:41:56;;;;;;;12.63;5.25;;;;;;;20.90;63.25;99450.05;2207924;81;21011;-82
2022/08/12 05:44:56;;;;;;;34.67;5.95;;;;;;;21.15;62.72;99445.56;2207233;81;20992;-81
2022/08/12 05:47:56;;;;;;;6.53;3.80;;;;;;;21.32;62.32;99442.57;2207562;81;20937;-83
2022/08/12 05:50:57;;;;;;;12.85;4.50;;;;;;;21.48;61.52;99436.87;2207929;81;21059;-82
2022/08/12 05:53:57;;;;;;;5.90;3.72;;;;;;;21.58;61.56;99426.91;2208460;81;21823;-82
2022/08/12 05:56:57;;;;;;;13.90;4.78;;;;;;;21.70;61.24;99438.61;2208708;81;20968;-81
2022/08/12 05:59:58;;;;;;;18.17;4.58;;;;;;;21.70;60.89;99431.09;2208622;81;20964;-82
2022/08/12 06:03:01;;;;;;;180.65;15.78;;;;;;;21.82;60.85;99430.80;2209467;81;21000;-78
2022/08/12 06:06:03;;;;;;;21.40;5.50;;;;;;;21.96;60.39;99424.69;2207100;81;20988;-82
2022/08/12 06:09:02;;;;;;;160.90;26.15;;;;;;;22.24;60.54;99424.43;2208745;81;20968;-79
2022/08/12 06:12:02;;;;;;;10.10;4.92;;;;;;;22.22;60.52;99423.59;2212500;80;21427;-80
2022/08/12 06:15:03;;;;;;;7.15;4.05;;;;;;;22.08;60.08;99428.86;2217624;80;20916;-81
2022/08/12 06:18:04;;;;;;;6.05;3.67;;;;;;;21.81;60.77;99423.28;2218051;80;21058;-81
2022/08/12 06:21:06;;;;;;;4.03;3.62;;;;;;;21.55;61.02;99416.36;2218266;80;21391;-81
2022/08/12 06:24:04;;;;;;;4.67;3.77;;;;;;;21.48;61.97;99420.94;2218076;80;20968;-80
2022/08/12 06:27:04;;;;;;;6.45;4.17;;;;;;;21.50;62.48;99424.44;2218214;80;20912;-81
2022/08/12 06:30:07;;;;;;;7.08;4.30;;;;;;;21.60;62.80;99420.66;2218730;80;20936;-80
2022/08/12 06:33:07;;;;;;;5.30;4.22;;;;;;;21.66;62.92;99420.09;2218412;80;20983;-81
2022/08/12 06:36:06;;;;;;;5.62;4.60;;;;;;;21.77;63.10;99420.28;2218872;80;20998;-81
2022/08/12 06:39:06;;;;;;;5.17;4.05;;;;;;;21.75;63.06;99417.25;2218745;80;20979;-81
2022/08/12 06:45:25;;;;;;;7.53;4.35;;;;;;;22.00;64.04;99413.06;2219011;80;20952;-81
2022/08/12 06:48:26;;;;;;;10.10;4.28;;;;;;;22.18;63.11;99403.32;2219670;80;20983;-80
2022/08/12 06:51:26;;;;;;;28.42;5.78;;;;;;;22.26;63.51;99401.79;2218618;80;21015;-81
2022/08/12 06:54:26;;;;;;;19.48;5.50;;;;;;;22.41;62.86;99397.84;2218848;80;20975;-80
2022/08/12 06:57:28;;;;;;;5.50;4.30;;;;;;;22.55;62.76;99401.90;2218886;80;21015;-79
2022/08/12 07:00:29;;;;;;;25.15;5.12;;;;;;;22.78;62.68;99400.38;2219547;80;21378;-79
2022/08/12 07:03:28;;;;;;;6.97;4.47;;;;;;;22.84;61.91;99405.55;2219945;80;20908;-81
2022/08/12 07:06:28;;;;;;;27.73;5.10;;;;;;;23.08;62.17;99409.28;2219895;80;21034;-82
2022/08/12 07:09:28;;;;;;;5.28;4.03;;;;;;;23.16;61.27;99416.13;2219752;80;20960;-79
2022/08/12 07:12:29;;;;;;;6.80;3.83;;;;;;;23.14;60.80;99415.75;2218898;80;21075;-80
2022/08/12 07:15:29;;;;;;;7.75;4.17;;;;;;;23.30;60.63;99413.03;2220118;80;20975;-79
2022/08/12 07:18:32;;;;;;;6.97;3.90;;;;;;;23.46;60.31;99406.80;2219823;80;21007;-80
2022/08/12 07:21:37;;;;;;;5.20;4.22;;;;;;;23.60;59.80;99405.06;2218431;80;21687;-80
2022/08/12 07:24:33;;;;;;;8.28;4.42;;;;;;;23.60;59.05;99406.40;2218911;80;20959;-82
2022/08/12 07:27:34;;;;;;;7.08;3.70;;;;;;;23.73;58.10;99399.75;2219931;80;20968;-82
2022/08/12 07:30:35;;;;;;;8.13;3.60;;;;;;;23.79;58.83;99403.09;2219799;80;20956;-79
2022/08/12 07:33:37;;;;;;;19.37;5.22;;;;;;;23.99;58.89;99402.88;2219697;80;21971;-83
2022/08/12 07:36:35;;;;;;;4.97;3.87;;;;;;;24.09;58.09;99401.19;2219830;80;21000;-79
2022/08/12 07:39:35;;;;;;;4.45;3.72;;;;;;;24.12;58.23;99405.08;2220160;80;21018;-84
2022/08/12 07:42:36;;;;;;;5.33;3.80;;;;;;;24.15;57.50;99421.44;2220681;80;21446;-81
2022/08/12 07:45:37;;;;;;;7.50;3.50;;;;;;;24.18;57.47;99413.80;2219670;80;20947;-81
2022/08/12 07:48:37;;;;;;;9.08;3.42;;;;;;;24.31;56.83;99421.84;2219763;80;20932;-82
2022/08/12 07:51:37;;;;;;;26.77;4.25;;;;;;;24.37;56.43;99424.30;2220740;80;20983;-80
2022/08/12 07:54:39;;;;;;;5.00;3.35;;;;;;;24.57;55.82;99415.13;2220368;80;20987;-81
2022/08/12 07:57:38;;;;;;;4.47;3.05;;;;;;;24.77;54.95;99420.61;2218609;80;21003;-80
2022/08/12 08:00:41;;;;;;;9.38;3.37;;;;;;;24.96;54.33;99417.25;2219055;80;20983;-82
2022/08/12 08:04:54;;;;;;;6.60;3.60;;;;;;;25.18;53.60;99408.89;2218916;80;20940;-81
2022/08/12 08:06:41;;;;;;;5.12;2.92;;;;;;;25.48;52.74;99412.63;2218614;80;21339;-82
2022/08/12 08:09:40;;;;;;;7.35;3.20;;;;;;;25.84;52.53;99409.84;2218899;80;21002;-80
2022/08/12 08:12:52;;;;;;;4.35;3.00;;;;;;;26.19;51.88;99410.19;2213679;80;21035;-80
2022/08/12 08:15:52;;;;;;;3.45;3.15;;;;;;;26.68;49.32;99397.36;2208349;81;20945;-78
2022/08/12 08:18:54;;;;;;;15.60;6.92;;;;;;;26.89;50.01;99416.51;2205342;81;21019;-81
2022/08/12 08:21:53;;;;;;;303.85;27.45;;;;;;;26.85;48.53;99409.52;2207589;81;20956;-79
2022/08/12 08:24:57;;;;;;;5.12;3.47;;;;;;;26.70;48.88;99412.42;2208233;81;20997;-81
2022/08/12 08:27:57;;;;;;;9.13;4.17;;;;;;;26.43;48.54;99413.64;2208568;81;20956;-80
2022/08/12 08:30:57;;;;;;;4.45;3.60;;;;;;;26.42;49.43;99407.42;2207913;81;20948;-80
2022/08/12 08:33:57;;;;;;;6.87;3.08;;;;;;;26.38;48.59;99408.49;2207749;81;20968;-80
2022/08/12 08:36:58;;;;;;;12.58;3.70;;;;;;;26.17;49.07;99400.89;2207874;81;21004;-80
2022/08/12 08:42:35;;;;;;;5.05;3.10;;;;;;;26.31;49.33;99407.86;2208112;81;20928;-81
2022/08/12 08:42:59;;;;;;;15.15;3.80;;;;;;;26.56;49.49;99410.36;2207656;81;21078;-81
2022/08/12 08:46:04;;;;;;;3.72;3.05;;;;;;;26.82;49.29;99407.84;2207882;81;21043;-80
2022/08/12 08:49:04;;;;;;;6.92;3.17;;;;;;;27.08;47.47;99416.56;2208338;81;20956;-81
2022/08/12 08:52:03;;;;;;;3.27;2.98;;;;;;;27.28;46.96;99414.69;2207935;81;20976;-80
2022/08/12 08:55:03;;;;;;;3.65;2.87;;;;;;;26.93;47.36;99416.77;2207802;81;21542;-77
2022/08/12 08:58:03;;;;;;;4.50;2.95;;;;;;;27.06;47.32;99412.62;2206108;81;21463;-81
2022/08/12 09:01:04;;;;;;;5.12;3.25;;;;;;;27.16;47.04;99416.61;2208183;81;20960;-81
2022/08/12 09:04:04;;;;;;;3.10;2.90;;;;;;;27.26;45.93;99411.21;2208537;81;21267;-81
2022/08/12 09:07:05;;;;;;;6.80;3.60;;;;;;;27.34;45.07;99415.34;2208607;81;20964;-82
2022/08/12 09:10:05;;;;;;;3.15;2.65;;;;;;;27.43;45.87;99408.20;2208121;81;21427;-81
2022/08/12 09:16:24;;;;;;;10.08;3.00;;;;;;;27.79;44.45;99406.94;2208814;81;21468;-81
2022/08/12 09:19:25;;;;;;;4.12;2.77;;;;;;;27.77;45.28;99412.38;2209841;81;20987;-81
2022/08/12 09:22:25;;;;;;;3.83;3.20;;;;;;;28.11;44.75;99412.03;2209729;81;20995;-81
2022/08/12 09:25:25;;;;;;;4.72;3.72;;;;;;;28.13;43.32;99411.01;2210367;81;21994;-81
2022/08/12 09:28:27;;;;;;;3.72;3.42;;;;;;;28.05;43.69;99401.61;2210436;81;21011;-80
2022/08/12 09:31:26;;;;;;;7.60;3.30;;;;;;;28.08;42.82;99400.11;2208458;81;20975;-78
2022/08/12 09:34:28;;;;;;;6.95;3.80;;;;;;;28.30;43.35;99406.63;2207694;81;22089;-81
2022/08/12 09:37:27;;;;;;;19.70;4.10;;;;;;;28.64;42.46;99400.39;2208131;81;20992;-79
2022/08/12 09:40:28;;;;;;;5.72;3.60;;;;;;;28.94;42.36;99401.45;2208679;81;21043;-79
2022/08/12 09:46:47;;;;;;;22.93;4.50;;;;;;;29.33;41.31;99393.48;2207755;81;20999;-81
2022/08/12 09:49:48;;;;;;;5.40;3.70;;;;;;;29.57;41.23;99394.84;2208847;81;20968;-80
2022/08/12 09:52:51;;;;;;;66.62;7.80;;;;;;;29.83;40.58;99390.66;2208888;81;21352;-81
2022/08/12 09:55:51;;;;;;;3.27;3.08;;;;;;;29.83;40.58;99390.66;2209109;81;20985;-81
2022/08/12 09:58:50;;;;;;;3.83;3.25;;;;;;;29.68;39.35;99392.41;2209110;81;20992;-81
2022/08/12 10:01:50;;;;;;;6.90;3.67;;;;;;;29.18;40.86;99397.42;2209106;81;20996;-81
2022/08/12 10:04:50;;;;;;;17.67;4.75;;;;;;;28.80;41.51;99402.17;2208956;81;20936;-82
2022/08/12 10:07:50;;;;;;;10.32;4.15;;;;;;;28.78;41.61;99400.52;2209036;81;20941;-79
2022/08/12 10:14:10;;;;;;;7.45;4.00;;;;;;;29.29;41.24;99380.69;2217066;80;21458;-80
2022/08/12 10:17:10;;;;;;;3.75;3.15;;;;;;;29.38;40.03;99375.27;2221048;80;21024;-79
2022/08/12 10:20:11;;;;;;;5.22;2.90;;;;;;;29.48;40.95;99373.86;2219582;80;20956;-80
2022/08/12 10:23:11;;;;;;;5.67;4.03;;;;;;;29.74;39.36;99370.53;2219496;80;21632;-81
2022/08/12 10:29:40;;;;;;;2.92;2.65;;;;;;;29.43;39.20;99379.94;2220135;80;21390;-81
2022/08/12 10:32:36;;;;;;;3.30;2.98;;;;;;;29.09;40.29;99367.50;2221073;80;21400;-81
2022/08/12 10:35:40;;;;;;;3.85;3.05;;;;;;;29.05;40.76;99369.48;2219070;80;20999;-81
2022/08/12 10:38:37;;;;;;;4.92;3.10;;;;;;;28.88;40.53;99372.70;2218779;80;21035;-80
2022/08/12 10:44:59;;;;;;;6.40;3.37;;;;;;;28.81;41.04;99362.73;2219036;80;21023;-79
2022/08/12 10:47:57;;;;;;;4.22;2.95;;;;;;;29.14;40.87;99365.42;2219655;80;20967;-82
2022/08/12 10:50:57;;;;;;;3.27;2.87;;;;;;;29.24;40.56;99364.42;2219205;80;20917;-80
2022/08/12 10:53:58;;;;;;;3.30;2.77;;;;;;;29.54;39.42;99369.47;2219094;80;21073;-81
2022/08/12 10:56:59;;;;;;;2.50;2.40;;;;;;;29.32;39.18;99373.80;2218575;80;21027;-81
2022/08/12 10:59:59;;;;;;;3.40;2.60;;;;;;;29.06;39.44;99369.88;2220655;80;21271;-81
2022/08/12 11:02:59;;;;;;;3.20;2.65;;;;;;;28.98;39.69;99364.06;2219886;80;21364;-80
2022/08/12 11:06:02;;;;;;;3.08;2.87;;;;;;;29.04;39.72;99352.10;2219246;80;21083;-81
2022/08/12 11:09:02;;;;;;;3.05;2.80;;;;;;;29.13;40.09;99351.11;2194538;80;21607;-81
2022/08/12 11:12:05;;;;;;;3.85;2.65;;;;;;;29.24;39.15;99357.23;2220894;80;21007;-81
2022/08/12 11:15:07;;;;;;;15.70;4.47;;;;;;;29.26;40.04;99362.52;2219932;80;21074;-81
2022/08/12 11:18:06;;;;;;;3.00;2.60;;;;;;;29.39;39.69;99357.70;2219173;80;21690;-81
2022/08/12 11:21:06;;;;;;;3.30;3.00;;;;;;;29.58;39.00;99356.23;2219264;80;20987;-82
2022/08/12 11:24:07;;;;;;;3.15;2.87;;;;;;;29.75;39.55;99359.29;2218713;80;21001;-81
2022/08/12 11:27:07;;;;;;;3.10;2.80;;;;;;;29.94;38.52;99361.77;2219578;80;21363;-82
2022/08/12 11:30:08;;;;;;;3.12;2.70;;;;;;;29.84;38.36;99361.92;2219939;80;20932;-81
2022/08/12 11:33:08;;;;;;;3.22;2.80;;;;;;;29.98;38.37;99356.11;2219134;80;21035;-81
2022/08/12 11:36:08;;;;;;;29.50;5.60;;;;;;;29.98;37.54;99349.86;2219428;80;20963;-79
2022/08/12 11:39:09;;;;;;;3.85;2.85;;;;;;;29.98;39.19;99349.86;2218951;80;20991;-81
2022/08/12 11:42:09;;;;;;;3.77;2.72;;;;;;;30.40;38.57;99341.94;2218786;80;20916;-82
2022/08/12 11:45:10;;;;;;;3.77;3.10;;;;;;;30.15;38.19;99348.41;2219063;80;21387;-81
2022/08/12 11:48:10;;;;;;;3.17;2.98;;;;;;;29.69;38.12;99359.17;2219628;80;20983;-81
2022/08/12 11:51:10;;;;;;;3.10;2.60;;;;;;;29.41;39.10;99354.45;2220013;80;21034;-81
2022/08/12 11:54:11;;;;;;;3.12;2.90;;;;;;;29.40;38.87;99350.03;2219789;80;20955;-81
2022/08/12 11:57:11;;;;;;;6.03;3.20;;;;;;;29.30;39.25;99348.81;2218789;80;21309;-81
2022/08/12 12:00:12;;;;;;;3.47;3.17;;;;;;;29.04;39.78;99354.31;2217801;80;20968;-81
2022/08/12 12:03:12;;;;;;;20.48;4.15;;;;;;;28.98;39.87;99346.59;2218006;80;20967;-81
2022/08/12 12:06:13;;;;;;;3.85;3.25;;;;;;;28.90;39.41;99343.46;2217920;80;20948;-81
2022/08/12 12:09:13;;;;;;;3.17;2.98;;;;;;;28.82;40.08;99340.30;2218636;80;21035;-81
2022/08/12 12:12:13;;;;;;;15.05;4.58;;;;;;;28.81;39.98;99345.28;2218076;80;21003;-81
2022/08/12 12:15:14;;;;;;;4.15;2.90;;;;;;;28.96;40.50;99337.75;2217286;80;21070;-82
2022/08/12 12:18:14;;;;;;;4.90;3.17;;;;;;;29.03;39.51;99339.14;2217535;80;21101;-81
2022/08/12 12:21:18;;;;;;;3.12;2.90;;;;;;;29.16;39.47;99340.19;2217813;80;21007;-81
2022/08/12 12:24:18;;;;;;;4.15;2.95;;;;;;;29.37;38.86;99345.30;2217620;80;20913;-80
2022/08/12 12:27:19;;;;;;;3.75;2.92;;;;;;;29.57;38.19;99346.91;2217608;80;20976;-82
2022/08/12 12:30:19;;;;;;;5.72;3.00;;;;;;;29.67;38.01;99339.56;2218461;80;21245;-83
2022/08/12 12:33:20;;;;;;;3.87;3.47;;;;;;;29.70;38.52;99328.62;2217855;80;20957;-82
2022/08/12 12:36:20;;;;;;;4.67;2.77;;;;;;;29.79;38.51;99324.04;2218210;80;21039;-82
2022/08/12 12:39:20;;;;;;;3.40;3.10;;;;;;;29.84;38.16;99330.97;2218660;80;21991;-83
2022/08/12 12:42:21;;;;;;;3.25;2.95;;;;;;;29.61;37.94;99328.30;2219329;80;20955;-82
2022/08/12 12:45:21;;;;;;;6.33;3.10;;;;;;;29.50;37.87;99325.36;2219418;80;21078;-83
2022/08/12 12:48:21;;;;;;;4.25;3.85;;;;;;;29.78;37.77;99320.09;2219482;80;21451;-83
2022/08/12 12:51:22;;;;;;;7.53;5.30;;;;;;;30.21;38.02;99318.41;2220191;80;20955;-82
2022/08/12 12:54:22;;;;;;;3.77;3.47;;;;;;;30.36;37.28;99317.50;2219413;80;20996;-81
2022/08/12 12:57:24;;;;;;;4.40;3.77;;;;;;;30.44;36.97;99318.38;2219211;80;21430;-81
2022/08/12 13:00:24;;;;;;;3.87;3.40;;;;;;;30.62;36.30;99319.09;2219188;80;20975;-81
2022/08/12 13:03:25;;;;;;;3.70;3.40;;;;;;;30.43;36.78;99312.12;2219004;80;26601;-80
2022/08/12 13:06:28;;;;;;;5.30;3.30;;;;;;;30.45;36.74;99312.51;2219358;80;20971;-80
2022/08/12 13:09:25;;;;;;;3.87;3.33;;;;;;;30.57;36.39;99322.52;2218467;80;21959;-81
2022/08/12 13:12:26;;;;;;;3.62;3.42;;;;;;;30.60;36.71;99318.31;2219358;80;20975;-81
2022/08/12 13:15:26;;;;;;;3.90;3.60;;;;;;;30.55;37.01;99315.02;2218963;80;21118;-81
2022/08/12 13:18:35;;;;;;;7.65;3.87;;;;;;;30.64;37.17;99310.43;2219141;80;21031;-81
2022/08/12 13:21:29;;;;;;;4.10;3.70;;;;;;;30.59;37.23;99305.33;2218806;80;21046;-81
2022/08/12 13:24:28;;;;;;;4.40;3.55;;;;;;;30.86;37.42;99305.41;2218576;80;20987;-80
2022/08/12 13:27:28;;;;;;;3.98;3.67;;;;;;;31.23;36.98;99306.66;2218201;80;20943;-80
2022/08/12 13:30:28;;;;;;;4.05;3.75;;;;;;;31.48;36.58;99296.45;2218625;80;20968;-80
2022/08/12 13:33:29;;;;;;;4.12;3.77;;;;;;;31.42;36.45;99290.60;2218369;80;20995;-80
2022/08/12 13:36:29;;;;;;;4.20;3.90;;;;;;;31.40;36.33;99293.40;2218861;80;21015;-79
2022/08/12 13:39:29;;;;;;;6.25;3.98;;;;;;;31.39;35.46;99291.67;2219411;80;21030;-80
2022/08/12 13:42:30;;;;;;;4.15;3.70;;;;;;;30.83;36.52;99282.70;2220555;80;21384;-80
2022/08/12 13:45:30;;;;;;;3.87;3.60;;;;;;;30.32;37.86;99277.36;2220911;80;21044;-80
2022/08/12 13:48:31;;;;;;;4.05;3.75;;;;;;;30.29;37.80;99274.38;2222068;80;20944;-80
2022/08/12 13:51:31;;;;;;;4.87;4.00;;;;;;;29.88;38.80;99271.98;2220413;80;21934;-80
2022/08/12 13:54:32;;;;;;;5.40;4.37;;;;;;;29.88;38.80;99271.98;2221934;80;20979;-80
2022/08/12 13:57:32;;;;;;;3.98;3.58;;;;;;;29.52;39.08;99274.56;2221312;80;21482;-80
2022/08/12 14:00:32;;;;;;;4.22;3.55;;;;;;;29.40;39.88;99275.20;2219948;80;20963;-80
2022/08/12 14:03:35;;;;;;;3.92;3.62;;;;;;;29.27;40.12;99284.47;2220092;80;21016;-80
2022/08/12 14:06:33;;;;;;;6.30;4.08;;;;;;;28.81;39.91;99283.48;2219390;80;21347;-80
2022/08/12 14:10:35;;;;;;;6.90;4.40;;;;;;;28.45;40.75;99288.55;2220486;80;21007;-80
2022/08/12 14:12:38;;;;;;;16.95;4.83;;;;;;;28.32;41.33;99290.64;2220117;80;20999;-80
2022/08/12 14:15:34;;;;;;;4.28;3.87;;;;;;;28.09;42.06;99277.06;2210192;80;21442;-80
2022/08/12 14:18:35;;;;;;;5.65;3.87;;;;;;;28.09;42.06;99277.06;2210170;81;20985;-80
2022/08/12 14:21:35;;;;;;;4.03;3.45;;;;;;;28.01;42.35;99273.92;2210555;81;20968;-80
2022/08/12 14:24:36;;;;;;;4.20;3.80;;;;;;;27.86;42.46;99268.41;2211539;81;20960;-80
2022/08/12 14:27:36;;;;;;;4.10;3.80;;;;;;;27.60;43.03;99284.46;2211369;81;20956;-80
2022/08/12 14:30:36;;;;;;;5.87;4.08;;;;;;;27.32;43.54;99285.41;2210537;81;20995;-80
2022/08/12 14:33:37;;;;;;;18.80;6.95;;;;;;;27.11;43.96;99279.30;2209313;81;20972;-79
2022/08/12 14:36:38;;;;;;;4.75;4.35;;;;;;;27.03;44.67;99285.50;2209009;81;20920;-80
2022/08/12 14:39:38;;;;;;;4.03;3.72;;;;;;;26.86;45.02;99280.02;2208579;81;21008;-79
2022/08/12 14:42:38;;;;;;;17.95;4.78;;;;;;;26.83;45.66;99279.69;2207665;81;21031;-81
2022/08/12 14:45:38;;;;;;;4.33;3.92;;;;;;;26.82;45.72;99265.03;2208969;81;21047;-80
2022/08/12 14:48:40;;;;;;;5.15;3.85;;;;;;;26.67;46.30;99273.32;2210891;79;21063;-80
2022/08/12 14:51:39;;;;;;;5.90;3.98;;;;;;;26.68;46.45;99271.04;2210263;81;20976;-80
2022/08/12 14:54:41;;;;;;;7.22;4.17;;;;;;;26.74;46.67;99272.56;2210388;81;20932;-80
2022/08/12 14:57:42;;;;;;;5.67;3.72;;;;;;;26.75;46.45;99266.27;2212038;79;20981;-79
2022/08/12 15:04:01;;;;;;;4.03;3.72;;;;;;;26.70;47.03;99272.30;2209419;81;20964;-79
2022/08/12 15:07:00;;;;;;;5.17;4.10;;;;;;;26.59;47.19;99265.64;2211332;81;21006;-80
2022/08/12 15:10:00;;;;;;;6.25;4.10;;;;;;;26.47;47.62;99259.53;2211408;81;20964;-80
2022/08/12 15:13:04;;;;;;;5.17;4.22;;;;;;;26.37;47.90;99264.03;2211413;81;21031;-80
2022/08/12 15:16:02;;;;;;;6.12;4.40;;;;;;;26.31;48.14;99262.00;2219619;80;20980;-79
2022/08/12 15:19:02;;;;;;;5.30;4.45;;;;;;;26.27;48.57;99252.84;2221549;80;20984;-79
2022/08/12 15:22:02;;;;;;;7.50;3.60;;;;;;;26.28;48.98;99249.23;2221406;80;21355;-79
2022/08/12 15:25:03;;;;;;;4.25;3.90;;;;;;;26.34;48.86;99251.19;2221392;80;20972;-80
2022/08/12 15:28:05;;;;;;;4.37;4.08;;;;;;;26.39;48.77;99242.95;2221654;80;20932;-79
2022/08/12 15:31:05;;;;;;;4.80;4.40;;;;;;;26.52;48.91;99241.91;2221147;80;21026;-80
2022/08/12 15:34:06;;;;;;;4.72;4.33;;;;;;;26.78;48.01;99236.66;2220985;80;21467;-80
2022/08/12 15:37:04;;;;;;;8.20;4.62;;;;;;;26.93;48.17;99233.28;2221746;80;20963;-80
2022/08/12 15:40:05;;;;;;;5.05;4.60;;;;;;;26.97;48.04;99224.14;2222974;80;20935;-80
2022/08/12 15:43:05;;;;;;;4.30;4.00;;;;;;;26.82;48.01;99217.69;2221713;80;20952;-83
2022/08/12 15:46:07;;;;;;;5.30;4.12;;;;;;;26.78;48.46;99218.78;2221184;80;20987;-80
2022/08/12 15:49:06;;;;;;;4.60;4.22;;;;;;;26.78;48.41;99222.80;2222099;80;20968;-81
2022/08/12 15:52:06;;;;;;;6.42;4.05;;;;;;;26.70;48.09;99222.30;2222423;80;20997;-81